Time;durP1;ratioP1;P1;durP2;ratioP2;P2;SDS_P1;SDS_P2;PMS_P1;PMS_P2;Temp;Humidity;BMP_temperature;BMP_pressure;BME280_temperature;BME280_humidity;BME280_pressure;Samples;Min_cycle;Max_cycle;Signal;HPM_P1;HPM_P2
2022/12/24 00:00:17;;;;;;;19.92;10.60;;;;;;;7.00;100.00;99201.69;5036388;28;20029;-83
2022/12/24 00:02:42;;;;;;;18.23;10.13;;;;;;;7.00;100.00;99202.47;5054255;28;20093;-82
2022/12/24 00:05:08;;;;;;;17.45;9.52;;;;;;;7.00;100.00;99182.59;5054030;28;20031;-82
2022/12/24 00:07:34;;;;;;;18.13;10.05;;;;;;;7.00;100.00;99181.78;5037232;28;20028;-83
2022/12/24 00:09:59;;;;;;;12.77;8.77;;;;;;;6.97;100.00;99179.97;5055934;28;20024;-83
2022/12/24 00:12:24;;;;;;;15.30;9.30;;;;;;;7.02;100.00;99177.19;5054990;28;20447;-82
2022/12/24 00:14:50;;;;;;;14.85;9.35;;;;;;;7.03;100.00;99180.78;5054703;28;20025;-83
2022/12/24 00:17:15;;;;;;;17.70;9.80;;;;;;;7.05;100.00;99181.09;5054539;28;20074;-81
2022/12/24 00:19:42;;;;;;;16.40;9.75;;;;;;;7.01;100.00;99184.16;5037520;28;20033;-82
2022/12/24 00:22:07;;;;;;;16.48;9.10;;;;;;;7.07;100.00;99181.38;5055946;28;20028;-81
2022/12/24 00:24:33;;;;;;;16.73;9.38;;;;;;;7.10;100.00;99198.22;5055276;28;20433;-82
2022/12/24 00:26:58;;;;;;;17.88;9.48;;;;;;;7.10;100.00;99200.25;5057504;28;20413;-81
2022/12/24 00:29:24;;;;;;;19.77;11.27;;;;;;;7.12;100.00;99199.78;5057904;28;20100;-81
2022/12/24 00:31:49;;;;;;;14.07;9.55;;;;;;;7.15;100.00;99176.84;5057971;28;20025;-80
2022/12/24 00:34:15;;;;;;;16.00;8.90;;;;;;;7.14;100.00;99180.94;5057565;28;20029;-81
2022/12/24 00:36:40;;;;;;;15.75;8.50;;;;;;;7.12;100.00;99194.09;5039940;28;20082;-83
2022/12/24 00:39:05;;;;;;;14.55;8.55;;;;;;;7.09;100.00;99187.34;5058909;28;20075;-81
2022/12/24 00:41:31;;;;;;;16.92;9.45;;;;;;;7.12;100.00;99194.09;5058261;28;20025;-81
2022/12/24 00:44:04;;;;;;;14.65;9.23;;;;;;;7.13;100.00;99202.09;5058004;28;20025;-81
2022/12/24 00:46:31;;;;;;;15.13;8.98;;;;;;;7.13;100.00;99199.25;5040144;28;20021;-83
2022/12/24 00:48:56;;;;;;;15.82;9.75;;;;;;;7.15;100.00;99196.72;5057304;28;20029;-82
2022/12/24 00:51:23;;;;;;;15.20;8.93;;;;;;;7.08;100.00;99188.59;5040326;28;20057;-83
2022/12/24 00:53:49;;;;;;;19.40;10.05;;;;;;;7.06;100.00;99206.16;5040325;28;20033;-82
2022/12/24 00:56:14;;;;;;;20.80;10.63;;;;;;;7.00;100.00;99204.53;5057534;28;20036;-82
2022/12/24 00:58:40;;;;;;;13.82;8.55;;;;;;;6.86;100.00;99191.94;5039823;28;20031;-82
2022/12/24 01:01:05;;;;;;;15.00;8.95;;;;;;;6.90;100.00;99205.91;5057067;28;20032;-82
2022/12/24 01:03:37;;;;;;;16.90;9.15;;;;;;;6.91;100.00;99204.66;5056926;28;20374;-82
2022/12/24 01:06:10;;;;;;;17.08;10.25;;;;;;;6.89;100.00;99210.03;5040093;28;20074;-82
2022/12/24 01:08:36;;;;;;;15.30;9.77;;;;;;;6.87;100.00;99204.09;5055998;28;20029;-82
2022/12/24 01:11:03;;;;;;;13.65;9.15;;;;;;;6.82;100.00;99194.22;5056572;28;20028;-82
2022/12/24 01:13:28;;;;;;;15.68;9.80;;;;;;;6.86;100.00;99202.50;5038409;28;20043;-81
2022/12/24 01:15:54;;;;;;;20.15;10.60;;;;;;;6.88;100.00;99203.56;5057503;28;20458;-82
2022/12/24 01:18:19;;;;;;;17.25;10.70;;;;;;;6.88;100.00;99211.34;5057736;28;20049;-82
2022/12/24 01:20:45;;;;;;;16.98;9.95;;;;;;;6.91;100.00;99205.44;5038861;28;20470;-83
2022/12/24 01:23:10;;;;;;;16.25;10.18;;;;;;;6.86;100.00;99197.63;5055511;28;20025;-82
2022/12/24 01:25:37;;;;;;;21.15;12.10;;;;;;;6.92;100.00;99204.16;5056539;28;20032;-82
2022/12/24 01:28:03;;;;;;;18.08;11.25;;;;;;;6.92;100.00;99198.50;5055421;28;20105;-82
2022/12/24 01:30:28;;;;;;;19.38;12.20;;;;;;;6.92;100.00;99195.66;5037569;28;20446;-83
2022/12/24 01:32:54;;;;;;;23.75;13.50;;;;;;;6.90;100.00;99197.41;5055668;28;20462;-82
2022/12/24 01:35:19;;;;;;;28.67;15.88;;;;;;;6.84;100.00;99193.69;5055013;28;20055;-82
2022/12/24 01:37:45;;;;;;;29.88;16.45;;;;;;;6.87;100.00;99195.56;5054517;28;20378;-82
2022/12/24 01:45:52;;;;;;;29.77;15.38;;;;;;;6.78;100.00;99195.69;5040064;28;20406;-82
2022/12/24 01:48:35;;;;;;;23.38;14.30;;;;;;;6.73;100.00;99202.84;5054995;28;20024;-83
2022/12/24 01:51:15;;;;;;;29.00;15.55;;;;;;;6.71;100.00;99205.41;5054734;28;20115;-81
2022/12/24 01:53:45;;;;;;;23.92;14.07;;;;;;;6.72;100.00;99214.69;5037244;28;20016;-81
2022/12/24 01:56:12;;;;;;;24.48;13.85;;;;;;;6.68;100.00;99214.91;5037011;28;20086;-81
2022/12/24 01:58:39;;;;;;;27.35;12.15;;;;;;;6.74;100.00;99218.59;5037083;28;20031;-82
2022/12/24 02:01:05;;;;;;;24.15;13.35;;;;;;;6.73;100.00;99204.91;5036783;28;20029;-83
2022/12/24 02:03:30;;;;;;;23.75;12.45;;;;;;;6.77;100.00;99202.66;5020116;28;20134;-82
2022/12/24 02:05:57;;;;;;;26.17;14.00;;;;;;;6.78;100.00;99201.38;5036870;28;20064;-82
2022/12/24 02:08:22;;;;;;;20.63;13.23;;;;;;;6.76;100.00;99198.25;5037173;28;20047;-82
2022/12/24 02:10:49;;;;;;;21.05;12.35;;;;;;;6.76;100.00;99195.41;5054404;28;20465;-82
2022/12/24 02:13:17;;;;;;;23.17;13.07;;;;;;;6.71;100.00;99193.25;5054675;28;20031;-83
2022/12/24 02:15:52;;;;;;;18.88;11.73;;;;;;;6.66;100.00;99192.69;5036337;28;20470;-83
2022/12/24 02:18:45;;;;;;;21.70;11.75;;;;;;;6.64;100.00;99189.53;5036652;28;20047;-83
2022/12/24 02:22:03;;;;;;;21.85;13.20;;;;;;;6.60;100.00;99193.88;5036533;28;20029;-82
2022/12/24 02:24:45;;;;;;;23.00;12.40;;;;;;;6.53;100.00;99183.72;5004715;28;20108;-82
2022/12/24 02:27:16;;;;;;;24.65;12.45;;;;;;;6.51;100.00;99183.41;5054825;28;20083;-82
2022/12/24 02:30:04;;;;;;;22.35;12.23;;;;;;;6.46;100.00;99175.59;5054257;28;20033;-82
2022/12/24 02:32:44;;;;;;;25.08;12.82;;;;;;;6.44;100.00;99177.34;5054141;28;20059;-81
2022/12/24 02:35:16;;;;;;;22.10;11.13;;;;;;;6.41;100.00;99181.97;5053949;28;20433;-81
2022/12/24 02:37:46;;;;;;;22.65;11.75;;;;;;;6.40;100.00;99177.56;5036795;28;20029;-82
2022/12/24 02:40:28;;;;;;;22.77;11.57;;;;;;;6.47;100.00;99179.22;5041667;28;20040;-82
2022/12/24 02:42:57;;;;;;;20.55;11.27;;;;;;;6.52;100.00;99187.84;5074180;28;20033;-82
2022/12/24 02:45:28;;;;;;;24.77;11.98;;;;;;;6.56;100.00;99184.78;5036845;28;20037;-82
2022/12/24 02:47:54;;;;;;;20.42;12.80;;;;;;;6.58;100.00;99188.69;5042733;28;20053;-82
2022/12/24 02:50:20;;;;;;;20.63;12.18;;;;;;;6.55;100.00;99186.84;5059358;28;20020;-82
2022/12/24 02:52:46;;;;;;;24.08;11.93;;;;;;;6.60;100.00;99191.81;5039237;28;20143;-82
2022/12/24 02:55:38;;;;;;;21.10;11.20;;;;;;;6.60;100.00;99183.31;5054017;28;20478;-83
2022/12/24 02:58:58;;;;;;;23.92;11.15;;;;;;;6.60;100.00;99193.88;5036009;28;20028;-83
2022/12/24 03:01:29;;;;;;;16.85;10.73;;;;;;;6.63;100.00;99192.91;4973048;28;20035;-83
2022/12/24 03:04:04;;;;;;;17.20;9.90;;;;;;;6.64;100.00;99192.38;5050171;28;20076;-82
2022/12/24 03:07:00;;;;;;;16.23;9.60;;;;;;;6.66;100.00;99198.38;5054048;28;20032;-82
2022/12/24 03:09:32;;;;;;;16.75;8.88;;;;;;;6.68;100.00;99195.03;5023912;28;20186;-82
2022/12/24 03:12:01;;;;;;;13.25;8.10;;;;;;;6.73;100.00;99202.06;5035556;28;20032;-82
2022/12/24 03:14:27;;;;;;;16.40;9.50;;;;;;;6.75;100.00;99191.78;5019203;28;20500;-81
2022/12/24 03:16:53;;;;;;;13.18;7.88;;;;;;;6.81;100.00;99197.53;5035497;28;20047;-83
2022/12/24 03:19:19;;;;;;;14.38;8.38;;;;;;;6.82;100.00;99199.88;5053409;28;20462;-82
2022/12/24 03:21:46;;;;;;;13.02;7.10;;;;;;;6.87;100.00;99190.66;5019187;28;20029;-83
2022/12/24 03:24:11;;;;;;;10.65;6.85;;;;;;;6.87;100.00;99190.66;5035770;28;20055;-82
2022/12/24 03:26:39;;;;;;;13.57;7.35;;;;;;;6.91;100.00;99193.28;5035844;28;20049;-82
2022/12/24 03:29:06;;;;;;;11.13;6.80;;;;;;;6.94;100.00;99195.13;5035726;28;20052;-82
2022/12/24 03:31:49;;;;;;;9.45;6.90;;;;;;;6.96;100.00;99198.28;5053151;28;20025;-83
2022/12/24 03:34:15;;;;;;;9.98;6.85;;;;;;;6.98;100.00;99192.84;5053578;28;20029;-82
2022/12/24 03:36:41;;;;;;;10.68;6.45;;;;;;;7.01;100.00;99191.88;5053343;28;20470;-82
2022/12/24 03:39:08;;;;;;;11.07;6.20;;;;;;;7.05;100.00;99195.28;5035577;28;20086;-83
2022/12/24 03:41:34;;;;;;;7.93;5.28;;;;;;;7.10;100.00;99195.38;5035322;28;20465;-82
2022/12/24 03:43:59;;;;;;;8.93;5.28;;;;;;;7.12;100.00;99200.56;5018914;28;20116;-82
2022/12/24 03:46:25;;;;;;;8.15;4.70;;;;;;;7.15;100.00;99196.72;5035481;28;20060;-83
2022/12/24 03:48:50;;;;;;;7.97;4.07;;;;;;;7.19;100.00;99202.19;5053149;28;20025;-82
2022/12/24 03:51:21;;;;;;;4.68;3.55;;;;;;;7.19;100.00;99202.97;5052851;28;20121;-82
2022/12/24 03:53:46;;;;;;;4.25;2.70;;;;;;;7.27;100.00;99206.97;5053027;28;20079;-83
2022/12/24 03:56:12;;;;;;;5.45;2.40;;;;;;;7.30;100.00;99214.47;5053402;28;20028;-83
2022/12/24 03:58:37;;;;;;;3.75;3.00;;;;;;;7.22;100.00;99201.22;5035548;28;20025;-83
2022/12/24 04:01:03;;;;;;;3.75;2.95;;;;;;;7.31;100.00;99213.22;5038861;28;20021;-82
2022/12/24 04:03:28;;;;;;;4.45;2.17;;;;;;;7.29;100.00;99210.06;5057051;28;20473;-82
2022/12/24 04:06:06;;;;;;;3.28;1.90;;;;;;;7.16;100.00;99206.03;5039161;28;20458;-83
2022/12/24 04:08:32;;;;;;;3.92;2.50;;;;;;;7.17;100.00;99213.28;5039073;28;20458;-82
2022/12/24 04:10:57;;;;;;;3.25;2.40;;;;;;;7.23;100.00;99214.09;5039362;28;20031;-83
2022/12/24 04:13:23;;;;;;;4.65;2.55;;;;;;;7.30;100.00;99223.00;5056827;28;20470;-83
2022/12/24 04:16:06;;;;;;;7.15;3.15;;;;;;;7.35;100.00;99212.97;5056974;28;20056;-83
2022/12/24 04:18:32;;;;;;;5.45;2.88;;;;;;;7.34;100.00;99219.94;5056570;28;20029;-82
2022/12/24 04:20:58;;;;;;;5.97;3.15;;;;;;;7.32;100.00;99219.69;5038969;28;20375;-82
2022/12/24 04:23:24;;;;;;;6.50;3.53;;;;;;;7.29;100.00;99218.59;5038720;28;20021;-83
2022/12/24 04:25:50;;;;;;;5.25;3.35;;;;;;;7.28;100.00;99213.41;5056979;28;20037;-83
2022/12/24 04:28:15;;;;;;;7.45;3.75;;;;;;;7.29;100.00;99212.91;5039083;28;20021;-83
2022/12/24 04:30:41;;;;;;;5.47;3.85;;;;;;;7.37;100.00;99222.56;5038843;28;20098;-83
2022/12/24 04:33:07;;;;;;;8.55;4.35;;;;;;;7.47;100.00;99228.91;5022190;28;20480;-82
2022/12/24 04:35:32;;;;;;;8.77;4.28;;;;;;;7.56;100.00;99228.75;5056435;28;20033;-83
2022/12/24 04:37:58;;;;;;;8.93;4.78;;;;;;;7.60;100.00;99232.16;5056552;28;20450;-83
2022/12/24 04:40:24;;;;;;;9.88;4.80;;;;;;;7.67;100.00;99243.09;5056262;28;20028;-83
2022/12/24 04:42:49;;;;;;;9.55;4.75;;;;;;;7.74;100.00;99247.56;5056050;28;20484;-83
2022/12/24 04:45:16;;;;;;;9.80;4.65;;;;;;;7.81;100.00;99247.13;5038634;28;20107;-82
2022/12/24 04:47:41;;;;;;;11.27;5.05;;;;;;;7.76;100.00;99239.31;5056106;28;20032;-83
2022/12/24 04:50:07;;;;;;;8.35;4.65;;;;;;;7.76;100.00;99245.00;5055998;28;20028;-83
2022/12/24 04:52:33;;;;;;;13.20;4.78;;;;;;;7.81;100.00;99244.28;5055702;28;20064;-82
2022/12/24 04:54:58;;;;;;;11.27;6.20;;;;;;;7.76;100.00;99245.00;5056353;28;20036;-82
2022/12/24 04:57:24;;;;;;;10.50;5.82;;;;;;;7.78;100.00;99239.59;5056257;28;20083;-83
2022/12/24 04:59:49;;;;;;;10.73;5.95;;;;;;;7.76;100.00;99247.84;5055936;28;20044;-82
2022/12/24 05:02:14;;;;;;;10.57;5.47;;;;;;;7.76;100.00;99247.84;5055970;28;20075;-82
2022/12/24 05:04:40;;;;;;;10.40;5.03;;;;;;;7.74;100.00;99247.56;5055639;28;20494;-83
2022/12/24 05:07:05;;;;;;;8.77;4.35;;;;;;;7.87;100.00;99256.50;5037822;28;20474;-82
2022/12/24 05:09:31;;;;;;;7.43;4.25;;;;;;;7.94;100.00;99254.00;5056208;28;20033;-82
2022/12/24 05:11:56;;;;;;;11.85;4.18;;;;;;;7.96;100.00;99262.06;5054476;28;20051;-82
2022/12/24 05:14:22;;;;;;;10.95;4.25;;;;;;;7.91;100.00;99251.41;5057212;28;20025;-82
2022/12/24 05:16:47;;;;;;;8.10;3.60;;;;;;;7.84;100.00;99248.97;5040471;28;20086;-81
2022/12/24 05:19:13;;;;;;;5.32;3.25;;;;;;;7.81;100.00;99255.66;5057064;28;20355;-83
2022/12/24 05:21:38;;;;;;;5.22;3.10;;;;;;;7.84;100.00;99261.13;5055571;28;20478;-83
2022/12/24 05:26:52;;;;;;;8.10;3.10;;;;;;;7.89;100.00;99257.56;5040533;28;20505;-83
2022/12/24 05:29:18;;;;;;;5.57;3.17;;;;;;;7.86;100.00;99261.44;5037654;28;20106;-82
2022/12/24 05:31:44;;;;;;;9.13;3.72;;;;;;;7.91;100.00;99274.16;5055299;28;20056;-83
2022/12/24 05:34:10;;;;;;;7.05;3.13;;;;;;;7.89;100.00;99268.94;5055481;28;20029;-83
2022/12/24 05:36:36;;;;;;;10.43;3.45;;;;;;;7.95;100.00;99278.34;5037346;28;20409;-83
2022/12/24 05:39:01;;;;;;;5.55;3.05;;;;;;;7.96;100.00;99281.97;5055466;28;20037;-83
2022/12/24 05:41:27;;;;;;;11.32;3.45;;;;;;;7.96;100.00;99287.66;5055110;28;20389;-83
2022/12/24 05:43:52;;;;;;;6.03;3.03;;;;;;;8.02;100.00;99288.47;5055092;28;20154;-83
2022/12/24 05:46:20;;;;;;;10.50;3.70;;;;;;;8.04;100.00;99291.63;5037093;28;20079;-82
2022/12/24 05:48:46;;;;;;;5.80;3.70;;;;;;;8.03;100.00;99287.19;5055188;28;20103;-83
2022/12/24 05:51:12;;;;;;;7.10;3.30;;;;;;;8.05;100.00;99296.03;5055095;28;20041;-83
2022/12/24 05:53:38;;;;;;;11.57;3.83;;;;;;;8.00;100.00;99295.97;5037108;28;20033;-83
2022/12/24 05:56:05;;;;;;;5.35;3.53;;;;;;;8.00;100.00;99295.97;5037000;28;20033;-83
2022/12/24 05:58:31;;;;;;;10.23;3.97;;;;;;;8.05;100.00;99304.56;5037108;28;20432;-82
2022/12/24 06:00:56;;;;;;;5.90;3.60;;;;;;;8.07;100.00;99301.97;5054839;28;20555;-83
2022/12/24 06:03:22;;;;;;;7.68;3.55;;;;;;;8.08;100.00;99300.69;5054836;28;20029;-83
2022/12/24 06:05:47;;;;;;;7.93;2.92;;;;;;;8.15;100.00;99310.88;5036949;28;20466;-83
2022/12/24 06:08:12;;;;;;;6.50;2.55;;;;;;;8.16;100.00;99307.53;5036807;28;20386;-83
2022/12/24 06:10:38;;;;;;;7.68;2.95;;;;;;;8.26;100.00;99311.78;5054670;28;20296;-83
2022/12/24 06:13:03;;;;;;;7.05;2.78;;;;;;;8.26;100.00;99314.63;5054648;28;20037;-83
2022/12/24 06:15:28;;;;;;;8.57;2.45;;;;;;;8.31;100.00;99311.06;5036952;28;20036;-83
2022/12/24 06:17:54;;;;;;;4.85;2.05;;;;;;;8.38;100.00;99312.69;5036380;28;20127;-83
2022/12/24 06:20:19;;;;;;;5.80;2.00;;;;;;;8.37;100.00;99313.97;5019944;28;20028;-83
2022/12/24 06:22:45;;;;;;;5.15;2.00;;;;;;;8.35;100.00;99317.34;5054236;28;20041;-82
2022/12/24 06:25:11;;;;;;;5.30;1.85;;;;;;;8.38;100.00;99324.06;5037156;28;20033;-82
2022/12/24 06:27:36;;;;;;;5.03;1.90;;;;;;;8.44;100.00;99324.13;5037597;28;20029;-83
2022/12/24 06:30:02;;;;;;;4.95;2.42;;;;;;;8.43;100.00;99323.34;5054578;28;20025;-81
2022/12/24 06:32:27;;;;;;;3.33;1.80;;;;;;;8.41;100.00;99336.53;5020638;28;20119;-83
2022/12/24 06:34:53;;;;;;;5.13;2.33;;;;;;;8.39;100.00;99337.03;5054887;28;20459;-83
2022/12/24 06:37:18;;;;;;;6.35;2.22;;;;;;;8.44;100.00;99342.00;5055277;28;20029;-82
2022/12/24 06:39:46;;;;;;;4.90;1.70;;;;;;;8.48;100.00;99342.56;5054344;28;20052;-82
2022/12/24 06:42:12;;;;;;;5.35;1.90;;;;;;;8.48;100.00;99345.41;5020340;28;20107;-82
2022/12/24 06:44:38;;;;;;;5.30;2.40;;;;;;;8.54;100.00;99348.31;5036320;28;20049;-83
2022/12/24 06:47:03;;;;;;;4.78;2.08;;;;;;;8.54;100.00;99351.94;5054566;28;20048;-82
2022/12/24 06:49:29;;;;;;;9.77;2.80;;;;;;;8.60;100.00;99360.53;5054265;28;20025;-82
2022/12/24 06:51:55;;;;;;;10.85;2.60;;;;;;;8.60;100.00;99374.78;5054077;28;20099;-83
2022/12/24 06:54:20;;;;;;;6.32;2.92;;;;;;;8.60;100.00;99374.78;5054584;28;20029;-83
2022/12/24 06:56:45;;;;;;;10.73;3.00;;;;;;;8.61;100.00;99373.47;5036202;28;20123;-82
2022/12/24 06:59:11;;;;;;;8.40;2.72;;;;;;;8.59;100.00;99376.06;5070762;28;20033;-83
2022/12/24 07:01:36;;;;;;;7.53;2.60;;;;;;;8.59;100.00;99382.53;5067756;28;20081;-82
2022/12/24 07:04:01;;;;;;;6.05;2.67;;;;;;;8.62;100.00;99395.75;5070149;28;20033;-83
2022/12/24 07:06:28;;;;;;;3.63;2.10;;;;;;;8.56;100.00;99377.84;5051674;28;20028;-83
2022/12/24 07:08:54;;;;;;;7.07;2.30;;;;;;;8.65;100.00;99406.16;5072055;28;20024;-82
2022/12/24 07:11:20;;;;;;;8.93;2.70;;;;;;;8.66;100.00;99398.38;5048063;28;20029;-84
2022/12/24 07:13:46;;;;;;;5.45;2.40;;;;;;;8.64;100.00;99407.44;5054902;28;20037;-83
2022/12/24 07:16:11;;;;;;;3.55;1.65;;;;;;;8.65;100.00;99413.94;5055179;28;20075;-82
2022/12/24 07:18:36;;;;;;;3.42;1.75;;;;;;;8.67;100.00;99431.28;5054718;28;20028;-82
2022/12/24 07:21:06;;;;;;;13.80;2.60;;;;;;;8.70;100.00;99433.94;5036654;28;20021;-82
2022/12/24 07:23:32;;;;;;;6.93;2.85;;;;;;;8.74;100.00;99428.78;5036426;28;20390;-82
2022/12/24 07:26:02;;;;;;;5.47;2.67;;;;;;;8.77;100.00;99438.38;5054326;28;20029;-82
2022/12/24 07:28:28;;;;;;;5.28;2.47;;;;;;;8.78;100.00;99462.75;5054018;28;20053;-82
2022/12/24 07:30:55;;;;;;;9.20;3.45;;;;;;;8.72;100.00;99461.88;5054280;28;20047;-83
2022/12/24 07:33:20;;;;;;;11.43;3.60;;;;;;;8.67;100.00;99479.69;5053986;28;20032;-82
2022/12/24 07:35:45;;;;;;;11.40;3.40;;;;;;;8.63;100.00;99479.91;5057633;28;20394;-82
2022/12/24 07:38:11;;;;;;;10.38;3.03;;;;;;;8.51;100.00;99491.69;5040308;28;20029;-82
2022/12/24 07:40:36;;;;;;;4.95;2.85;;;;;;;8.47;100.00;99494.72;5023721;28;20021;-82
2022/12/24 07:43:02;;;;;;;7.13;2.35;;;;;;;8.37;100.00;99496.94;5057994;28;20074;-82
2022/12/24 07:45:27;;;;;;;5.38;2.50;;;;;;;8.30;100.00;99503.06;5058100;28;20070;-83
2022/12/24 07:47:52;;;;;;;3.47;2.22;;;;;;;8.25;100.00;99508.69;5057736;28;20021;-82
2022/12/24 07:50:18;;;;;;;4.35;2.38;;;;;;;8.16;100.00;99511.66;5059819;28;20113;-83
2022/12/24 07:52:44;;;;;;;5.00;2.55;;;;;;;8.14;100.00;99522.72;5041649;28;20375;-84
2022/12/24 07:55:09;;;;;;;3.15;2.28;;;;;;;8.15;100.00;99533.59;5058195;28;20037;-83
2022/12/24 07:57:34;;;;;;;4.43;2.75;;;;;;;8.16;100.00;99540.88;5057805;28;20059;-82
2022/12/24 08:00:00;;;;;;;5.38;2.40;;;;;;;8.17;100.00;99544.50;5057512;28;20025;-82
2022/12/24 08:02:25;;;;;;;2.55;2.30;;;;;;;8.15;100.00;99541.34;5058294;28;20074;-82
2022/12/24 08:04:50;;;;;;;3.70;2.50;;;;;;;8.18;100.00;99543.22;5058075;28;20048;-84
2022/12/24 08:07:16;;;;;;;4.63;2.97;;;;;;;8.13;100.00;99543.91;5039909;28;20087;-82
2022/12/24 08:09:43;;;;;;;5.40;2.55;;;;;;;8.09;100.00;99546.97;5058211;28;20021;-83
2022/12/24 08:12:08;;;;;;;5.35;2.80;;;;;;;8.05;100.00;99546.38;5058986;28;20096;-82
2022/12/24 08:14:33;;;;;;;5.63;3.03;;;;;;;8.05;100.00;99556.97;5040474;28;20485;-82
2022/12/24 08:16:59;;;;;;;4.28;3.35;;;;;;;8.02;100.00;99569.34;5057574;28;20109;-82
2022/12/24 08:19:24;;;;;;;6.47;3.58;;;;;;;7.91;100.00;99550.84;5058849;28;20032;-84
2022/12/24 08:21:50;;;;;;;4.00;3.20;;;;;;;7.98;100.00;99561.00;5026095;28;20032;-84
2022/12/24 08:24:15;;;;;;;6.70;4.70;;;;;;;8.01;100.00;99574.25;5059132;28;20107;-83
2022/12/24 08:26:41;;;;;;;8.00;4.97;;;;;;;7.99;100.00;99585.34;5057319;28;20064;-84
2022/12/24 08:29:06;;;;;;;10.73;4.90;;;;;;;8.01;100.00;99594.19;5057038;28;20021;-83
2022/12/24 08:31:35;;;;;;;10.40;5.20;;;;;;;7.99;100.00;99588.19;5057680;28;20028;-83
2022/12/24 08:34:04;;;;;;;9.48;5.50;;;;;;;8.00;100.00;99603.97;5057044;28;20100;-82
2022/12/24 08:36:30;;;;;;;9.70;6.05;;;;;;;7.98;100.00;99609.38;5058788;28;20428;-83
2022/12/24 08:38:55;;;;;;;9.60;5.57;;;;;;;7.98;100.00;99607.31;5057485;28;20033;-83
2022/12/24 08:41:20;;;;;;;12.35;5.93;;;;;;;7.98;100.00;99615.84;5039428;28;20021;-83
2022/12/24 08:43:46;;;;;;;10.98;6.68;;;;;;;7.98;100.00;99621.53;5057821;28;20024;-83
2022/12/24 08:46:11;;;;;;;11.40;7.18;;;;;;;7.96;100.00;99634.69;5057194;28;20118;-82
2022/12/24 08:48:37;;;;;;;10.70;7.50;;;;;;;7.91;100.00;99647.56;5039679;28;20128;-83
2022/12/24 08:51:09;;;;;;;11.63;8.73;;;;;;;7.82;100.00;99641.16;5057528;28;20073;-81
2022/12/24 08:53:35;;;;;;;15.05;8.75;;;;;;;7.77;100.00;99634.09;5041611;28;20021;-84
2022/12/24 08:56:06;;;;;;;16.60;9.18;;;;;;;7.76;100.00;99641.06;5059666;28;20112;-82
2022/12/24 08:58:32;;;;;;;17.27;10.30;;;;;;;7.71;100.00;99658.81;5057281;28;20025;-83
2022/12/24 09:00:58;;;;;;;17.10;10.20;;;;;;;7.70;100.00;99653.63;5058019;28;20075;-84
2022/12/24 09:03:23;;;;;;;18.15;10.27;;;;;;;7.62;100.00;99655.28;5057352;28;20025;-83
2022/12/24 09:05:49;;;;;;;14.82;10.07;;;;;;;7.66;100.00;99658.72;5057806;28;20021;-83
2022/12/24 09:08:14;;;;;;;17.92;10.63;;;;;;;7.69;100.00;99666.25;5057027;28;20373;-83
2022/12/24 09:10:39;;;;;;;20.98;11.10;;;;;;;7.71;100.00;99667.34;5039091;28;20017;-82
2022/12/24 09:13:05;;;;;;;15.70;11.02;;;;;;;7.75;100.00;99667.94;5022008;28;20416;-82
2022/12/24 09:15:30;;;;;;;18.55;12.43;;;;;;;7.79;100.00;99662.84;5038790;28;20025;-83
2022/12/24 09:17:56;;;;;;;17.58;11.18;;;;;;;7.86;100.00;99673.84;5057265;28;20032;-83
2022/12/24 09:20:21;;;;;;;18.67;10.98;;;;;;;7.86;100.00;99670.22;5057053;28;20378;-81
2022/12/24 09:22:47;;;;;;;18.52;11.60;;;;;;;7.85;100.00;99672.25;5038195;28;20041;-82
2022/12/24 09:25:12;;;;;;;15.32;10.90;;;;;;;7.87;100.00;99674.59;5037992;28;20358;-82
2022/12/24 09:27:38;;;;;;;16.58;11.10;;;;;;;7.86;100.00;99668.16;5021398;28;20086;-84
2022/12/24 09:30:05;;;;;;;17.08;10.13;;;;;;;7.83;100.00;99683.34;5055971;28;20021;-84
2022/12/24 09:32:30;;;;;;;16.58;10.73;;;;;;;7.82;100.00;99681.75;5037828;28;20029;-82
2022/12/24 09:34:56;;;;;;;20.60;11.88;;;;;;;7.80;100.00;99681.47;5037910;28;20051;-84
2022/12/24 09:37:21;;;;;;;17.13;10.27;;;;;;;7.80;100.00;99687.16;5055869;28;20433;-83
2022/12/24 09:39:47;;;;;;;17.75;11.05;;;;;;;7.81;100.00;99691.59;5055735;28;20032;-82
2022/12/24 09:42:32;;;;;;;17.05;11.63;;;;;;;7.90;100.00;99708.56;5055666;28;20104;-83
2022/12/24 09:45:00;;;;;;;18.20;11.25;;;;;;;7.95;100.00;99704.25;5038320;28;20032;-83
2022/12/24 09:47:37;;;;;;;19.23;11.93;;;;;;;8.02;100.00;99711.59;5056243;28;20032;-82
2022/12/24 09:50:27;;;;;;;17.65;11.35;;;;;;;8.10;100.00;99721.31;5038297;28;20063;-81
2022/12/24 09:52:53;;;;;;;18.40;10.60;;;;;;;8.08;100.00;99715.31;5041407;28;20057;-83
2022/12/24 09:55:26;;;;;;;16.30;10.70;;;;;;;8.03;100.00;99733.88;5037945;28;20028;-83
2022/12/24 09:57:53;;;;;;;15.32;10.25;;;;;;;8.08;100.00;99738.88;5054278;28;20478;-82
2022/12/24 10:00:26;;;;;;;16.63;10.30;;;;;;;8.11;100.00;99737.13;5037935;28;20079;-83
2022/12/24 10:02:52;;;;;;;16.10;10.07;;;;;;;8.19;100.00;99741.16;5056116;28;20067;-83
2022/12/24 10:05:25;;;;;;;15.15;9.82;;;;;;;8.18;100.00;99748.13;5055328;28;20033;-82
2022/12/24 10:08:20;;;;;;;14.70;8.68;;;;;;;8.22;100.00;99740.97;5055141;28;20079;-82
2022/12/24 10:10:50;;;;;;;14.60;8.32;;;;;;;8.28;100.00;99749.59;5014571;28;20041;-82
2022/12/24 10:13:23;;;;;;;16.13;9.18;;;;;;;8.33;100.00;99758.25;5055198;28;20036;-83
2022/12/24 10:16:09;;;;;;;14.05;8.38;;;;;;;8.36;100.00;99762.94;5055415;28;20040;-83
2022/12/24 10:18:48;;;;;;;13.07;8.73;;;;;;;8.41;100.00;99769.25;5054568;28;20024;-85
2022/12/24 10:21:40;;;;;;;13.55;9.18;;;;;;;8.49;100.00;99764.72;5036743;28;20029;-82
2022/12/24 10:24:21;;;;;;;14.60;8.75;;;;;;;8.59;100.00;99772.66;5000282;28;20052;-82
2022/12/24 10:27:00;;;;;;;14.05;9.20;;;;;;;8.56;100.00;99770.03;5037277;28;20029;-83
2022/12/24 10:29:31;;;;;;;11.25;8.38;;;;;;;8.59;100.00;99789.75;5036905;28;20028;-83
2022/12/24 10:32:03;;;;;;;13.88;7.88;;;;;;;8.52;100.00;99793.00;5037132;28;20029;-83
2022/12/24 10:34:32;;;;;;;12.85;8.57;;;;;;;8.33;100.00;99778.16;5037099;28;20078;-83
2022/12/24 10:37:01;;;;;;;10.68;7.75;;;;;;;8.38;100.00;99788.88;5054715;28;20037;-83
2022/12/24 10:39:27;;;;;;;18.67;9.48;;;;;;;8.37;100.00;99801.53;5037189;28;20028;-84
2022/12/24 10:41:56;;;;;;;12.52;8.18;;;;;;;8.34;100.00;99791.13;5054703;28;20033;-82
2022/12/24 10:44:25;;;;;;;13.32;8.20;;;;;;;8.34;100.00;99801.72;5020815;28;20040;-83
2022/12/24 10:46:50;;;;;;;11.30;7.47;;;;;;;8.36;100.00;99805.66;5036694;28;20032;-83
2022/12/24 10:50:00;;;;;;;11.95;7.70;;;;;;;8.36;100.00;99819.13;5054119;28;20021;-83
2022/12/24 10:52:32;;;;;;;10.43;6.85;;;;;;;8.30;100.00;99821.06;5011421;28;20056;-83
2022/12/24 10:55:07;;;;;;;11.43;7.75;;;;;;;8.20;100.00;99828.13;5037152;28;20079;-83
2022/12/24 10:57:32;;;;;;;11.32;7.90;;;;;;;8.09;100.00;99830.72;5054450;28;20106;-83
2022/12/24 10:59:58;;;;;;;12.27;7.85;;;;;;;8.02;100.00;99829.03;5036286;28;20080;-83
2022/12/24 11:02:38;;;;;;;13.77;8.60;;;;;;;7.99;100.00;99835.69;5036277;28;20027;-84
2022/12/24 11:05:07;;;;;;;15.00;9.63;;;;;;;7.96;100.00;99836.69;5054103;28;20355;-83
2022/12/24 11:07:33;;;;;;;13.35;8.10;;;;;;;7.98;100.00;99842.66;5019996;28;20113;-83
2022/12/24 11:10:06;;;;;;;13.55;8.13;;;;;;;7.94;100.00;99840.00;5054104;28;20057;-83
2022/12/24 11:12:38;;;;;;;15.77;9.27;;;;;;;7.97;100.00;99844.72;5036554;28;20029;-83
2022/12/24 11:15:15;;;;;;;12.35;7.25;;;;;;;7.97;100.00;99852.47;5036372;28;20032;-83
2022/12/24 11:17:41;;;;;;;10.35;6.32;;;;;;;7.87;100.00;99846.06;5051568;28;20083;-82
2022/12/24 11:20:16;;;;;;;16.05;7.68;;;;;;;7.88;100.00;99849.69;5052747;28;20021;-84
2022/12/24 11:22:47;;;;;;;12.07;6.60;;;;;;;7.89;100.00;99857.75;5050040;28;20021;-83
2022/12/24 11:25:19;;;;;;;12.35;7.93;;;;;;;7.92;100.00;99855.97;5049082;28;20028;-83
2022/12/24 11:27:49;;;;;;;10.52;6.32;;;;;;;7.89;100.00;99862.66;5066348;28;20021;-83
2022/12/24 11:30:14;;;;;;;9.82;6.88;;;;;;;7.90;100.00;99864.22;5039880;28;20044;-82
2022/12/24 11:32:45;;;;;;;12.35;7.30;;;;;;;7.93;100.00;99871.78;5054410;28;20055;-83
2022/12/24 11:35:21;;;;;;;16.50;7.22;;;;;;;7.98;100.00;99876.78;5054406;28;20025;-83
2022/12/24 11:37:59;;;;;;;13.52;6.80;;;;;;;8.00;100.00;99870.63;5036496;28;20116;-83
2022/12/24 11:40:34;;;;;;;11.82;7.03;;;;;;;8.01;100.00;99883.59;5053709;28;20033;-83